Time;durP1;ratioP1;P1;durP2;ratioP2;P2;SDS_P1;SDS_P2;PMS_P1;PMS_P2;Temp;Humidity;BMP_temperature;BMP_pressure;BME280_temperature;BME280_humidity;BME280_pressure;Samples;Min_cycle;Max_cycle;Signal;HPM_P1;HPM_P2
2023/02/28 00:00:37;;;;;;;22.35;20.85;;;0.00;99.90;;;;;;5032625;28;20075;-72
2023/02/28 00:03:04;;;;;;;21.95;20.45;;;0.10;99.90;;;;;;5033495;28;20040;-72
2023/02/28 00:05:30;;;;;;;22.75;20.95;;;0.20;99.90;;;;;;5034920;28;20131;-72
2023/02/28 00:07:57;;;;;;;22.40;20.70;;;0.20;99.90;;;;;;5036667;28;20422;-71
2023/02/28 00:10:27;;;;;;;21.88;20.25;;;0.20;99.90;;;;;;5033933;28;20131;-71
2023/02/28 00:12:56;;;;;;;23.15;21.35;;;0.20;99.90;;;;;;5037650;28;20045;-72
2023/02/28 00:15:24;;;;;;;22.05;20.55;;;0.10;99.90;;;;;;5031611;28;20126;-72
2023/02/28 00:17:50;;;;;;;22.63;20.83;;;0.20;99.90;;;;;;5041555;28;20045;-73
2023/02/28 00:20:18;;;;;;;21.85;20.25;;;0.20;99.90;;;;;;5033317;28;20037;-72
2023/02/28 00:22:47;;;;;;;22.50;20.80;;;0.10;99.90;;;;;;5035473;28;20932;-72
2023/02/28 00:25:17;;;;;;;22.20;20.70;;;0.10;99.90;;;;;;5020291;28;20037;-73
2023/02/28 00:27:44;;;;;;;22.52;20.92;;;0.10;99.90;;;;;;5036057;28;20450;-72
2023/02/28 00:30:14;;;;;;;22.63;20.92;;;0.00;99.90;;;;;;5031032;28;20102;-72
2023/02/28 00:32:41;;;;;;;22.60;20.98;;;0.10;99.90;;;;;;5035252;28;20044;-72
2023/02/28 00:35:09;;;;;;;22.38;20.88;;;0.10;99.90;;;;;;5034764;28;20816;-72
2023/02/28 00:37:36;;;;;;;22.65;21.05;;;0.00;99.90;;;;;;5035438;28;20047;-73
2023/02/28 00:40:06;;;;;;;22.60;21.00;;;0.00;99.90;;;;;;5033469;28;20048;-73
2023/02/28 00:42:34;;;;;;;22.45;20.88;;;-0.10;99.90;;;;;;5034437;28;20051;-72
2023/02/28 00:45:01;;;;;;;22.15;20.65;;;-0.10;99.90;;;;;;5036240;28;20542;-72
2023/02/28 00:47:28;;;;;;;22.17;20.67;;;-0.10;99.90;;;;;;5032213;28;20132;-71
2023/02/28 00:49:54;;;;;;;23.83;21.83;;;0.00;99.90;;;;;;5039797;28;20124;-71
2023/02/28 00:52:21;;;;;;;22.48;20.88;;;0.00;99.90;;;;;;5031072;28;20045;-71
2023/02/28 00:54:48;;;;;;;22.15;20.65;;;-0.10;99.90;;;;;;5034296;28;20037;-71
2023/02/28 00:57:15;;;;;;;23.17;21.40;;;-0.20;99.90;;;;;;5028557;28;20143;-73
2023/02/28 00:59:41;;;;;;;22.90;21.25;;;-0.30;99.90;;;;;;5039274;28;20636;-74
2023/02/28 01:02:08;;;;;;;22.83;21.02;;;-0.20;99.90;;;;;;5037377;28;20450;-74
2023/02/28 01:04:36;;;;;;;22.80;21.08;;;-0.20;99.90;;;;;;5033219;28;20049;-73
2023/02/28 01:07:03;;;;;;;22.75;21.08;;;-0.20;99.90;;;;;;5032959;28;20041;-72
2023/02/28 01:09:30;;;;;;;22.58;20.75;;;-0.40;99.90;;;;;;5020209;28;20041;-73
2023/02/28 01:11:57;;;;;;;23.95;22.05;;;-0.50;99.90;;;;;;5035792;28;20557;-73
2023/02/28 01:14:24;;;;;;;22.23;20.65;;;-0.50;99.90;;;;;;5034392;28;20053;-72
2023/02/28 01:16:51;;;;;;;22.42;20.83;;;-0.50;99.90;;;;;;5028480;28;20051;-73
2023/02/28 01:19:18;;;;;;;23.17;21.58;;;-0.50;99.90;;;;;;5036085;28;20514;-72
2023/02/28 01:21:45;;;;;;;22.63;21.05;;;-0.60;99.90;;;;;;5044857;28;20775;-71
2023/02/28 01:24:12;;;;;;;22.60;20.90;;;-0.70;99.90;;;;;;5039444;28;20068;-73
2023/02/28 01:26:39;;;;;;;22.80;21.20;;;-0.70;99.90;;;;;;5013943;28;20117;-72
2023/02/28 01:29:06;;;;;;;22.50;20.90;;;-0.70;99.90;;;;;;5030518;28;20044;-72
2023/02/28 01:31:34;;;;;;;22.15;20.70;;;-0.70;99.90;;;;;;5031649;28;20053;-73
2023/02/28 01:34:01;;;;;;;22.45;20.85;;;-0.70;99.90;;;;;;5039523;28;20048;-72
2023/02/28 01:36:29;;;;;;;22.30;20.80;;;-0.80;99.90;;;;;;5031057;28;20456;-73
2023/02/28 01:38:56;;;;;;;22.38;20.77;;;-0.90;99.90;;;;;;5042135;28;20033;-72
2023/02/28 01:41:26;;;;;;;22.83;21.27;;;-0.90;99.90;;;;;;5030658;28;20045;-73
2023/02/28 01:43:56;;;;;;;23.45;21.85;;;-0.90;99.90;;;;;;5029092;28;20049;-73
2023/02/28 01:46:23;;;;;;;22.02;20.63;;;-0.90;99.90;;;;;;5031178;28;20048;-73
2023/02/28 01:48:56;;;;;;;22.52;21.05;;;-0.90;99.90;;;;;;5033629;28;20127;-72
2023/02/28 01:51:54;;;;;;;22.38;20.67;;;-0.90;99.90;;;;;;5033478;28;20099;-71
2023/02/28 01:54:29;;;;;;;23.02;21.33;;;-0.90;99.90;;;;;;5037611;28;20072;-74
2023/02/28 01:57:08;;;;;;;;;;;-0.90;99.90;;;;;;5031508;28;20042;-72
2023/02/28 01:59:48;;;;;;;22.60;21.00;;;-0.90;99.90;;;;;;5032129;28;20020;-73
2023/02/28 02:02:18;;;;;;;22.80;21.25;;;-0.90;99.90;;;;;;5034644;28;20544;-71
2023/02/28 02:04:58;;;;;;;22.45;20.92;;;-0.90;99.90;;;;;;5037923;28;20106;-72
2023/02/28 02:07:26;;;;;;;23.08;21.58;;;-0.90;99.90;;;;;;5036503;28;20041;-71
2023/02/28 02:10:06;;;;;;;22.73;21.13;;;-0.90;99.90;;;;;;5043072;28;20331;-72
2023/02/28 02:13:00;;;;;;;22.60;21.10;;;-0.90;99.90;;;;;;5043682;28;20045;-72
2023/02/28 02:15:45;;;;;;;22.77;21.05;;;-0.90;99.90;;;;;;5035937;28;20511;-72
2023/02/28 02:18:35;;;;;;;22.45;20.95;;;-1.00;99.90;;;;;;5040427;28;20068;-73
2023/02/28 02:21:15;;;;;;;22.35;20.85;;;-0.90;99.90;;;;;;5034682;28;20048;-73
2023/02/28 02:24:01;;;;;;;22.13;20.63;;;-1.00;99.90;;;;;;5046178;28;20059;-72
2023/02/28 02:27:06;;;;;;;22.65;20.95;;;-1.00;99.90;;;;;;5036080;28;20048;-72
2023/02/28 02:30:07;;;;;;;22.52;21.02;;;-1.00;99.90;;;;;;5029991;28;20045;-72
2023/02/28 02:32:58;;;;;;;22.33;20.92;;;-1.00;99.90;;;;;;5033729;28;20037;-72
2023/02/28 02:35:39;;;;;;;22.67;21.08;;;-1.10;99.90;;;;;;5015613;28;20080;-71
2023/02/28 02:38:50;;;;;;;22.95;21.20;;;-1.00;99.90;;;;;;5040678;28;20052;-73
2023/02/28 02:41:24;;;;;;;22.80;21.20;;;-1.00;99.90;;;;;;5008834;28;20037;-71
2023/02/28 02:44:13;;;;;;;23.00;21.40;;;-1.10;99.90;;;;;;5034534;28;20446;-74
2023/02/28 02:46:53;;;;;;;23.08;21.38;;;-1.00;99.90;;;;;;5035329;28;20057;-72
2023/02/28 02:49:26;;;;;;;23.25;21.42;;;-1.10;99.90;;;;;;5039729;28;20069;-72
2023/02/28 02:51:56;;;;;;;22.92;21.42;;;-1.10;99.90;;;;;;5040895;28;20053;-72
2023/02/28 02:54:30;;;;;;;23.15;21.42;;;-1.20;99.90;;;;;;5037360;28;20080;-72
2023/02/28 02:57:01;;;;;;;23.13;21.25;;;-1.10;99.90;;;;;;5045356;28;20056;-74
2023/02/28 02:59:29;;;;;;;22.95;21.45;;;-1.10;99.90;;;;;;5020759;28;20537;-71
2023/02/28 03:01:59;;;;;;;23.15;21.45;;;-1.10;99.90;;;;;;5031178;28;20087;-72
2023/02/28 03:04:31;;;;;;;23.00;21.20;;;-1.00;99.90;;;;;;5033256;28;20423;-72
2023/02/28 03:06:58;;;;;;;22.73;21.13;;;-1.00;99.90;;;;;;5038934;28;20072;-72
2023/02/28 03:09:25;;;;;;;22.38;20.88;;;-1.00;99.90;;;;;;5031348;28;20037;-71
2023/02/28 03:11:55;;;;;;;22.70;21.05;;;-1.00;99.90;;;;;;5032066;28;20052;-73
2023/02/28 03:14:50;;;;;;;22.50;21.00;;;-1.20;99.90;;;;;;5037382;28;20045;-72
2023/02/28 03:17:38;;;;;;;22.48;20.90;;;-1.20;99.90;;;;;;5035923;28;20059;-72
2023/02/28 03:20:31;;;;;;;22.52;21.02;;;-1.20;99.90;;;;;;5044606;28;20044;-71
2023/02/28 03:23:15;;;;;;;22.48;20.98;;;-1.30;99.90;;;;;;4991772;28;20045;-73
2023/02/28 03:26:13;;;;;;;22.73;21.00;;;-1.30;99.90;;;;;;5044605;28;20067;-74
2023/02/28 03:29:01;;;;;;;23.08;21.27;;;-1.30;99.90;;;;;;5034964;28;20226;-73
2023/02/28 03:31:44;;;;;;;22.35;20.75;;;-1.40;99.90;;;;;;5035044;28;20123;-73
2023/02/28 03:34:21;;;;;;;22.70;21.10;;;-1.60;99.90;;;;;;5046281;28;20044;-72
2023/02/28 03:36:55;;;;;;;22.90;21.05;;;-1.70;99.90;;;;;;5043879;28;20037;-72
2023/02/28 03:39:44;;;;;;;22.83;21.23;;;-1.80;99.90;;;;;;5036028;28;20045;-71
2023/02/28 03:42:16;;;;;;;22.67;21.17;;;-1.90;99.90;;;;;;5033494;28;20041;-71
2023/02/28 03:44:52;;;;;;;22.33;20.92;;;-2.00;99.90;;;;;;5034430;28;20052;-73
2023/02/28 03:47:31;;;;;;;22.98;21.33;;;-2.00;99.90;;;;;;5035842;28;20084;-73
2023/02/28 03:50:06;;;;;;;22.77;21.08;;;-2.00;99.90;;;;;;5034543;28;20136;-71
2023/02/28 03:52:37;;;;;;;23.00;21.48;;;-2.10;99.90;;;;;;5033188;28;20128;-70
2023/02/28 03:55:10;;;;;;;23.90;21.65;;;-2.10;99.90;;;;;;5037531;28;20737;-73
2023/02/28 03:57:56;;;;;;;23.38;21.42;;;-2.10;99.90;;;;;;5042940;28;20048;-72
2023/02/28 04:00:36;;;;;;;23.55;21.98;;;-2.10;99.90;;;;;;5042091;28;20049;-74
2023/02/28 04:03:04;;;;;;;22.77;21.27;;;-2.20;99.90;;;;;;5036350;28;20048;-73
2023/02/28 04:05:31;;;;;;;23.05;21.50;;;-2.40;99.90;;;;;;5040207;28;20053;-73
2023/02/28 04:08:06;;;;;;;22.30;20.67;;;-2.50;99.90;;;;;;5041856;28;20052;-72
2023/02/28 04:10:33;;;;;;;21.83;20.35;;;-2.40;99.90;;;;;;5029640;28;20063;-74
2023/02/28 04:13:00;;;;;;;22.33;20.83;;;-2.40;99.90;;;;;;5025393;28;20051;-71
2023/02/28 04:15:27;;;;;;;22.05;20.63;;;-2.50;99.90;;;;;;5039271;28;20561;-71
2023/02/28 04:17:53;;;;;;;22.45;20.95;;;-2.50;99.90;;;;;;5042528;28;20051;-72
2023/02/28 04:20:20;;;;;;;22.98;21.48;;;-2.70;99.90;;;;;;5032603;28;20037;-72
2023/02/28 04:22:47;;;;;;;22.55;20.90;;;-2.60;99.90;;;;;;5036780;28;20040;-71
2023/02/28 04:25:13;;;;;;;22.35;20.88;;;-2.70;99.90;;;;;;5036600;28;20037;-72
2023/02/28 04:27:40;;;;;;;23.00;21.42;;;-2.70;99.90;;;;;;5035118;28;20033;-73
2023/02/28 04:30:08;;;;;;;22.13;20.73;;;-2.60;99.90;;;;;;5042836;28;20052;-71
2023/02/28 04:32:34;;;;;;;22.50;21.10;;;-2.60;99.90;;;;;;5015137;28;20033;-72
2023/02/28 04:35:02;;;;;;;23.70;21.88;;;-2.50;99.90;;;;;;5043589;28;20098;-72
2023/02/28 04:37:29;;;;;;;23.15;21.60;;;-2.60;99.90;;;;;;5034100;28;20122;-74
2023/02/28 04:39:55;;;;;;;21.92;20.52;;;-2.70;99.90;;;;;;5039340;28;20040;-72
2023/02/28 04:42:23;;;;;;;22.60;21.00;;;-2.70;99.90;;;;;;5028743;28;20041;-72
2023/02/28 04:44:50;;;;;;;22.45;20.95;;;-2.60;99.90;;;;;;5018545;28;20049;-77
2023/02/28 04:47:16;;;;;;;22.35;20.85;;;-2.70;99.90;;;;;;5031309;28;20136;-76
2023/02/28 04:49:43;;;;;;;22.90;21.40;;;-2.60;99.90;;;;;;5040225;28;20491;-75
2023/02/28 04:52:10;;;;;;;22.40;20.90;;;-2.60;99.90;;;;;;5043447;28;20045;-76
2023/02/28 04:54:38;;;;;;;22.90;21.35;;;-2.60;99.90;;;;;;5035151;28;20055;-77
2023/02/28 04:57:05;;;;;;;23.05;21.65;;;-2.50;99.90;;;;;;5044569;28;20037;-76
2023/02/28 04:59:32;;;;;;;22.38;20.88;;;-2.40;99.90;;;;;;5032904;28;20053;-76
2023/02/28 05:01:59;;;;;;;23.02;21.35;;;-2.40;99.90;;;;;;5039780;28;20128;-77
2023/02/28 05:04:26;;;;;;;22.58;21.08;;;-2.30;99.90;;;;;;5041249;28;20049;-77
2023/02/28 05:06:52;;;;;;;22.85;21.02;;;-2.30;99.90;;;;;;5041417;28;20162;-78
2023/02/28 05:09:19;;;;;;;22.90;21.13;;;-2.30;99.90;;;;;;5035314;28;20033;-76
2023/02/28 05:11:46;;;;;;;22.02;20.63;;;-2.20;99.90;;;;;;5031513;28;20052;-76
2023/02/28 05:14:13;;;;;;;22.10;20.70;;;-2.10;99.90;;;;;;5044358;28;20056;-79
2023/02/28 05:16:41;;;;;;;22.85;20.88;;;-2.00;99.90;;;;;;5037585;28;20611;-79
2023/02/28 05:19:07;;;;;;;23.98;22.35;;;-2.00;99.90;;;;;;5048114;28;20048;-76
2023/02/28 05:21:39;;;;;;;23.25;21.70;;;-2.00;99.90;;;;;;5032571;28;20036;-77
2023/02/28 05:24:11;;;;;;;23.42;21.92;;;-1.90;99.90;;;;;;5044230;28;20045;-78
2023/02/28 05:26:42;;;;;;;24.40;22.60;;;-2.00;99.90;;;;;;5029252;28;20492;-76
2023/02/28 05:29:10;;;;;;;23.85;22.25;;;-1.90;99.90;;;;;;5032964;28;20439;-79
2023/02/28 05:31:37;;;;;;;25.10;23.23;;;-1.90;99.90;;;;;;5032159;28;20081;-79
2023/02/28 05:34:04;;;;;;;24.98;23.27;;;-2.00;99.90;;;;;;5036939;28;20044;-77
2023/02/28 05:36:31;;;;;;;24.08;22.38;;;-1.90;99.90;;;;;;5027753;28;20053;-77
2023/02/28 05:38:57;;;;;;;23.50;22.05;;;-1.90;99.90;;;;;;5039722;28;20072;-79
2023/02/28 05:41:25;;;;;;;23.67;22.10;;;-1.90;99.90;;;;;;5037179;28;20036;-79
2023/02/28 05:43:53;;;;;;;23.80;22.20;;;-2.00;99.90;;;;;;5033146;28;20071;-76
2023/02/28 05:46:19;;;;;;;23.65;21.95;;;-2.00;99.90;;;;;;5044559;28;20052;-78
2023/02/28 05:48:47;;;;;;;23.20;21.73;;;-2.10;99.90;;;;;;5031872;28;20049;-77
2023/02/28 05:51:15;;;;;;;24.25;22.30;;;-2.10;99.90;;;;;;5040108;28;20044;-76
2023/02/28 05:53:41;;;;;;;23.90;21.90;;;-2.20;99.90;;;;;;5037628;28;20040;-78
2023/02/28 05:56:08;;;;;;;23.08;21.48;;;-2.20;99.90;;;;;;5036498;28;20437;-78
2023/02/28 05:58:34;;;;;;;24.60;22.90;;;-2.20;99.90;;;;;;5036229;28;20037;-77
2023/02/28 06:01:20;;;;;;;24.05;22.35;;;-2.30;99.90;;;;;;5035792;28;20695;-76
2023/02/28 06:03:47;;;;;;;24.50;22.50;;;-2.10;99.90;;;;;;5029724;28;20668;-77
2023/02/28 06:06:14;;;;;;;25.45;23.70;;;-2.10;99.90;;;;;;5032549;28;20045;-79
2023/02/28 06:08:43;;;;;;;24.80;23.02;;;-2.10;99.90;;;;;;5032658;28;20124;-79
2023/02/28 06:11:09;;;;;;;24.38;22.63;;;-2.20;99.90;;;;;;5035892;28;20526;-80
2023/02/28 06:13:36;;;;;;;24.63;22.73;;;-2.20;99.90;;;;;;5023789;28;20040;-77
2023/02/28 06:16:03;;;;;;;33.78;31.63;;;-2.20;99.90;;;;;;5034295;28;20041;-79
2023/02/28 06:18:29;;;;;;;24.00;22.40;;;-2.20;99.90;;;;;;5031954;28;20037;-77
2023/02/28 06:20:56;;;;;;;24.73;22.92;;;-2.10;99.90;;;;;;5036954;28;20041;-76
2023/02/28 06:23:23;;;;;;;24.15;22.35;;;-2.10;99.90;;;;;;5037906;28;20037;-78
2023/02/28 06:25:49;;;;;;;24.30;22.48;;;-2.20;99.90;;;;;;5038084;28;20054;-77
2023/02/28 06:28:16;;;;;;;29.75;27.65;;;-2.30;99.90;;;;;;5042166;28;20036;-74
2023/02/28 06:30:43;;;;;;;30.13;27.85;;;-2.40;99.90;;;;;;5036255;28;20034;-74
2023/02/28 06:33:12;;;;;;;28.67;26.75;;;-2.50;99.90;;;;;;5034880;28;20040;-75
2023/02/28 06:35:38;;;;;;;28.08;26.38;;;-2.60;99.90;;;;;;5040024;28;20583;-75
2023/02/28 06:38:05;;;;;;;33.33;31.13;;;-2.70;99.90;;;;;;5040857;28;20068;-78
2023/02/28 06:40:34;;;;;;;32.75;30.85;;;-2.70;99.90;;;;;;5041908;28;20144;-76
2023/02/28 06:43:02;;;;;;;33.17;31.20;;;-2.80;99.90;;;;;;5042458;28;20735;-77
2023/02/28 06:45:28;;;;;;;33.58;31.45;;;-2.70;99.90;;;;;;5032544;28;20060;-74
2023/02/28 06:47:55;;;;;;;34.08;31.92;;;-2.70;99.90;;;;;;5043466;28;20426;-75
2023/02/28 06:50:22;;;;;;;33.67;31.52;;;-2.60;99.90;;;;;;5026829;28;20051;-76
2023/02/28 06:52:53;;;;;;;32.80;30.80;;;-2.50;99.90;;;;;;5041868;28;20053;-76
2023/02/28 06:55:20;;;;;;;32.97;30.77;;;-2.50;99.90;;;;;;5038322;28;20748;-76
2023/02/28 06:57:46;;;;;;;31.55;29.65;;;-2.50;99.90;;;;;;5042463;28;20693;-76
2023/02/28 07:00:14;;;;;;;32.15;30.15;;;-2.50;99.90;;;;;;5042385;28;20040;-75
2023/02/28 07:02:41;;;;;;;30.88;29.08;;;-2.50;99.90;;;;;;5036474;28;20033;-78
2023/02/28 07:05:08;;;;;;;31.38;29.35;;;-2.50;99.90;;;;;;5043575;28;20051;-76
2023/02/28 07:07:37;;;;;;;31.70;29.65;;;-2.60;99.90;;;;;;5040266;28;20043;-80
2023/02/28 07:10:04;;;;;;;30.63;28.73;;;-2.50;99.90;;;;;;5047979;28;20461;-77
2023/02/28 07:12:30;;;;;;;32.72;30.33;;;-2.50;99.90;;;;;;5040398;28;20706;-79
2023/02/28 07:14:57;;;;;;;30.88;28.98;;;-2.70;99.90;;;;;;5039693;28;20051;-78
2023/02/28 07:17:23;;;;;;;31.88;29.67;;;-2.60;99.90;;;;;;5042655;28;20041;-76
2023/02/28 07:19:50;;;;;;;30.83;28.95;;;-2.60;99.90;;;;;;5048586;28;20028;-74
2023/02/28 07:22:17;;;;;;;31.15;29.33;;;-2.70;99.90;;;;;;5041812;28;20072;-80
2023/02/28 07:24:43;;;;;;;30.30;28.42;;;-2.80;99.90;;;;;;5040890;28;20039;-75
2023/02/28 07:27:11;;;;;;;30.52;28.73;;;-2.80;99.90;;;;;;5041178;28;20041;-75
2023/02/28 07:29:38;;;;;;;31.42;29.52;;;-2.60;99.90;;;;;;5046864;28;23351;-75
2023/02/28 07:32:04;;;;;;;31.73;29.73;;;-2.40;99.90;;;;;;5051264;28;20044;-75
2023/02/28 07:34:31;;;;;;;31.92;30.02;;;-2.30;99.90;;;;;;5041758;28;20109;-76
2023/02/28 07:36:58;;;;;;;31.60;29.58;;;-2.20;99.90;;;;;;5044884;28;20049;-78
2023/02/28 07:39:24;;;;;;;31.20;29.27;;;-2.50;99.90;;;;;;5041535;28;20631;-77
2023/02/28 07:41:51;;;;;;;31.15;29.23;;;-2.60;99.90;;;;;;5046796;28;20037;-77
2023/02/28 07:44:18;;;;;;;31.73;29.83;;;-2.50;99.90;;;;;;5043825;28;20086;-78
2023/02/28 07:46:44;;;;;;;31.85;29.75;;;-2.30;99.90;;;;;;5025656;28;20675;-77
2023/02/28 07:49:11;;;;;;;33.63;31.50;;;-2.10;99.90;;;;;;5039677;28;20145;-80
2023/02/28 07:51:38;;;;;;;34.35;32.15;;;-1.90;99.90;;;;;;5042133;28;20048;-76
2023/02/28 07:54:05;;;;;;;35.38;32.88;;;-1.60;99.90;;;;;;5038954;28;20072;-77
2023/02/28 07:56:31;;;;;;;36.92;34.38;;;-1.50;99.90;;;;;;5038649;28;20083;-76
2023/02/28 07:58:58;;;;;;;34.60;32.45;;;-1.40;99.90;;;;;;5045111;28;20047;-78
2023/02/28 08:01:25;;;;;;;36.65;34.60;;;-1.20;99.90;;;;;;5036888;28;20128;-78
2023/02/28 08:03:52;;;;;;;37.97;35.67;;;-1.20;99.90;;;;;;5035829;28;20793;-76
2023/02/28 08:06:22;;;;;;;37.60;35.50;;;-1.00;99.90;;;;;;5034085;28;20146;-73
2023/02/28 08:08:49;;;;;;;38.85;36.55;;;-0.90;99.90;;;;;;5033387;28;20865;-73
2023/02/28 08:11:16;;;;;;;38.35;36.35;;;-0.70;99.90;;;;;;5038139;28;20044;-71
2023/02/28 08:13:44;;;;;;;38.08;35.85;;;-0.40;99.90;;;;;;5030703;28;20029;-72
2023/02/28 08:16:17;;;;;;;34.17;32.00;;;-0.40;99.90;;;;;;5022961;28;20037;-72
2023/02/28 08:18:43;;;;;;;34.25;32.25;;;-0.20;99.90;;;;;;5034555;28;20380;-72
2023/02/28 08:21:10;;;;;;;34.20;32.08;;;-0.10;99.90;;;;;;5026486;28;20044;-72
2023/02/28 08:23:37;;;;;;;34.72;32.58;;;0.00;99.90;;;;;;5035546;28;20237;-72
2023/02/28 08:26:04;;;;;;;35.53;33.42;;;0.10;99.90;;;;;;5042399;28;20047;-72
2023/02/28 08:28:32;;;;;;;34.08;31.85;;;0.10;99.90;;;;;;5032929;28;20301;-72
2023/02/28 08:30:59;;;;;;;32.75;30.65;;;0.10;99.90;;;;;;5042693;28;20094;-72
2023/02/28 08:33:27;;;;;;;32.88;30.88;;;0.10;99.90;;;;;;5039904;28;20136;-73
2023/02/28 08:35:55;;;;;;;32.35;30.23;;;0.10;99.90;;;;;;5038434;28;20117;-73
2023/02/28 08:38:23;;;;;;;34.38;32.10;;;0.30;99.90;;;;;;5035504;28;20041;-72
2023/02/28 08:40:56;;;;;;;31.58;29.38;;;0.40;99.90;;;;;;5026255;28;20131;-73
2023/02/28 08:43:23;;;;;;;34.40;32.20;;;0.40;99.90;;;;;;5039868;28;20059;-73
2023/02/28 08:45:52;;;;;;;31.73;29.30;;;0.50;99.90;;;;;;5040654;28;20075;-74
2023/02/28 08:48:19;;;;;;;35.70;33.22;;;0.70;99.90;;;;;;5037975;28;20062;-73
2023/02/28 08:50:58;;;;;;;32.35;30.25;;;0.80;99.90;;;;;;5038432;28;20046;-73
2023/02/28 08:53:34;;;;;;;32.67;30.60;;;0.90;99.90;;;;;;5035103;28;20407;-72
2023/02/28 08:56:03;;;;;;;33.72;31.63;;;0.90;99.90;;;;;;5041694;28;20055;-72
2023/02/28 08:58:30;;;;;;;35.42;33.22;;;1.10;99.90;;;;;;5039439;28;20127;-73
2023/02/28 09:00:57;;;;;;;30.30;28.40;;;1.00;99.90;;;;;;5041358;28;20053;-73
2023/02/28 09:03:24;;;;;;;30.85;28.67;;;1.10;99.90;;;;;;5037224;28;20278;-73
2023/02/28 09:06:00;;;;;;;31.05;28.95;;;1.10;99.90;;;;;;5034148;28;20149;-73
2023/02/28 09:08:30;;;;;;;30.52;28.52;;;1.10;99.90;;;;;;5031763;28;20087;-72
2023/02/28 09:10:57;;;;;;;30.58;28.58;;;1.20;99.90;;;;;;5031510;28;20173;-73
2023/02/28 09:13:26;;;;;;;31.52;29.63;;;1.40;99.90;;;;;;5038937;28;20072;-73
2023/02/28 09:15:54;;;;;;;31.02;29.13;;;2.00;99.90;;;;;;5040324;28;20140;-73
2023/02/28 09:18:21;;;;;;;30.00;28.13;;;2.40;99.90;;;;;;5038008;28;20140;-73
2023/02/28 09:20:47;;;;;;;31.10;28.73;;;2.10;99.90;;;;;;5036946;28;20696;-72
2023/02/28 09:23:14;;;;;;;31.80;29.90;;;2.10;99.90;;;;;;5038056;28;20040;-73
2023/02/28 09:25:53;;;;;;;31.27;29.33;;;2.70;99.90;;;;;;5033334;28;20442;-72
2023/02/28 09:28:20;;;;;;;31.17;29.13;;;2.90;99.90;;;;;;5040596;28;20247;-72
2023/02/28 09:30:53;;;;;;;32.67;30.35;;;2.30;99.90;;;;;;5034760;28;20255;-72
2023/02/28 09:33:21;;;;;;;31.30;29.20;;;1.90;99.90;;;;;;5030573;28;20479;-72
2023/02/28 09:35:49;;;;;;;32.75;30.58;;;1.80;99.90;;;;;;5013514;28;20531;-72
2023/02/28 09:38:16;;;;;;;32.40;29.92;;;1.70;99.90;;;;;;5041877;28;20139;-72
2023/02/28 09:40:58;;;;;;;34.25;31.60;;;1.80;99.90;;;;;;5037221;28;20496;-72
2023/02/28 09:43:37;;;;;;;32.60;30.40;;;1.80;99.90;;;;;;5042024;28;20132;-72
2023/02/28 09:46:32;;;;;;;33.30;31.00;;;1.60;99.90;;;;;;5031057;28;20434;-72
2023/02/28 09:49:01;;;;;;;;;;;2.20;99.90;;;;;;5037985;28;20055;-72
2023/02/28 09:51:56;;;;;;;36.28;33.70;;;2.20;99.90;;;;;;5034166;28;19921;-72
2023/02/28 09:54:24;;;;;;;38.40;35.92;;;2.30;99.90;;;;;;5035311;28;20073;-72
2023/02/28 09:57:00;;;;;;;39.72;37.08;;;2.50;99.90;;;;;;5037636;28;20033;-72
2023/02/28 10:00:16;;;;;;;33.67;31.45;;;2.50;99.90;;;;;;5036008;28;20045;-73
2023/02/28 10:03:06;;;;;;;39.33;36.90;;;2.20;99.90;;;;;;5027024;28;20041;-74
2023/02/28 10:05:44;;;;;;;35.95;32.97;;;2.30;99.90;;;;;;5026202;28;20047;-73
2023/02/28 10:08:20;;;;;;;37.58;35.15;;;2.30;99.90;;;;;;5031117;28;20052;-74
2023/02/28 10:10:53;;;;;;;38.15;35.75;;;2.10;99.90;;;;;;5029549;28;20477;-76
2023/02/28 10:13:26;;;;;;;37.30;34.80;;;2.00;99.90;;;;;;5033316;28;20191;-74
2023/02/28 10:16:26;;;;;;;39.90;37.25;;;2.10;99.90;;;;;;5037384;28;20043;-74
2023/02/28 10:19:46;;;;;;;39.13;36.63;;;2.30;99.90;;;;;;5013478;28;20084;-74
2023/02/28 10:22:35;;;;;;;38.70;36.30;;;2.40;99.90;;;;;;5030061;28;20207;-74
2023/02/28 10:25:16;;;;;;;40.63;37.85;;;2.40;99.90;;;;;;5035122;28;20521;-73
2023/02/28 10:27:42;;;;;;;36.15;33.67;;;2.60;99.90;;;;;;5033419;28;20590;-74
2023/02/28 10:30:13;;;;;;;41.22;38.67;;;2.60;99.90;;;;;;5038139;28;20044;-73
2023/02/28 10:32:47;;;;;;;39.63;37.22;;;2.70;99.90;;;;;;5029647;28;20098;-74
2023/02/28 10:35:18;;;;;;;36.00;33.58;;;2.80;99.90;;;;;;5046620;28;20188;-74
2023/02/28 10:37:48;;;;;;;39.35;37.03;;;3.00;99.90;;;;;;5047045;28;20053;-74
2023/02/28 10:40:18;;;;;;;39.50;37.10;;;3.30;99.90;;;;;;5034436;28;20073;-73
2023/02/28 10:43:13;;;;;;;38.65;36.15;;;2.90;99.90;;;;;;5037153;28;20722;-74
2023/02/28 10:45:52;;;;;;;;;;;2.80;99.90;;;;;;5067670;22;20067;-71
2023/02/28 10:48:19;;;;;;;39.85;37.38;;;2.60;99.90;;;;;;5056932;28;19964;-74
2023/02/28 10:50:57;;;;;;;37.00;34.42;;;2.60;99.90;;;;;;5014126;28;20127;-71
2023/02/28 10:53:26;;;;;;;39.97;37.17;;;2.50;99.90;;;;;;5035743;28;20135;-72
2023/02/28 10:56:07;;;;;;;37.60;34.95;;;2.70;99.90;;;;;;5037043;28;20725;-73
2023/02/28 10:59:00;;;;;;;39.35;36.83;;;2.70;99.90;;;;;;5036229;28;20047;-72
2023/02/28 11:01:41;;;;;;;39.60;37.05;;;2.60;99.90;;;;;;5052713;28;20376;-73
2023/02/28 11:04:29;;;;;;;40.05;37.40;;;2.50;99.90;;;;;;5053408;28;20346;-73
2023/02/28 11:07:01;;;;;;;40.03;37.55;;;2.50;99.90;;;;;;5031760;28;20325;-73
2023/02/28 11:09:34;;;;;;;39.20;36.95;;;2.60;99.90;;;;;;5048142;28;20064;-73
2023/02/28 11:12:04;;;;;;;37.40;35.10;;;2.60;99.90;;;;;;5041873;28;20480;-72
2023/02/28 11:14:36;;;;;;;39.03;36.72;;;2.40;99.90;;;;;;5027124;28;20036;-72
2023/02/28 11:17:21;;;;;;;36.90;34.80;;;2.30;99.90;;;;;;5035154;28;20308;-72
2023/02/28 11:19:51;;;;;;;39.72;37.08;;;2.40;99.90;;;;;;5058743;28;21481;-72
2023/02/28 11:22:23;;;;;;;39.95;37.58;;;2.40;99.90;;;;;;5037725;28;20036;-72
2023/02/28 11:24:54;;;;;;;39.38;37.00;;;2.60;99.90;;;;;;5036972;28;20924;-72
2023/02/28 11:27:25;;;;;;;37.83;35.42;;;2.80;99.90;;;;;;5030668;28;20048;-72
2023/02/28 11:29:52;;;;;;;40.17;37.88;;;2.70;99.90;;;;;;5033431;28;20112;-72
2023/02/28 11:32:24;;;;;;;35.97;33.75;;;2.70;99.90;;;;;;5052535;28;20047;-73
2023/02/28 11:35:13;;;;;;;39.55;37.10;;;2.80;99.90;;;;;;5054900;28;20493;-71
2023/02/28 11:37:41;;;;;;;40.85;38.28;;;2.90;99.90;;;;;;5037963;28;20101;-73
2023/02/28 11:40:16;;;;;;;41.15;38.55;;;3.10;99.90;;;;;;5049495;28;20047;-74
2023/02/28 11:43:09;;;;;;;41.65;39.13;;;3.10;99.90;;;;;;5054453;28;20044;-74
2023/02/28 11:45:50;;;;;;;40.40;37.80;;;3.10;99.90;;;;;;5031412;28;20425;-74
2023/02/28 11:48:25;;;;;;;40.63;38.08;;;3.10;99.90;;;;;;5036113;28;20216;-73
2023/02/28 11:51:01;;;;;;;41.25;38.95;;;3.10;99.90;;;;;;5038220;28;20049;-73
2023/02/28 11:54:05;;;;;;;41.67;39.28;;;3.00;99.90;;;;;;5043673;28;20052;-73
2023/02/28 11:56:43;;;;;;;39.65;37.15;;;2.60;99.90;;;;;;5052302;28;20048;-73
2023/02/28 11:59:46;;;;;;;40.03;37.72;;;2.70;99.90;;;;;;5037947;28;20043;-74
2023/02/28 12:02:51;;;;;;;41.10;38.25;;;3.00;99.90;;;;;;5039432;28;20131;-73
2023/02/28 12:05:43;;;;;;;37.15;34.72;;;3.10;99.90;;;;;;4991715;28;20053;-74
2023/02/28 12:08:27;;;;;;;35.47;33.17;;;2.90;99.90;;;;;;4968054;28;20121;-73
2023/02/28 12:11:18;;;;;;;36.42;34.03;;;3.00;99.90;;;;;;5038997;28;20036;-73
2023/02/28 12:14:25;;;;;;;36.90;34.80;;;2.80;99.90;;;;;;5052463;28;20052;-71
2023/02/28 12:17:03;;;;;;;35.85;33.53;;;2.60;99.90;;;;;;5055092;28;20446;-73
2023/02/28 12:20:13;;;;;;;36.78;34.67;;;2.80;99.90;;;;;;5034761;28;20048;-73
2023/02/28 12:22:46;;;;;;;34.53;31.90;;;2.80;99.90;;;;;;5058603;28;20446;-73
2023/02/28 12:25:20;;;;;;;32.03;30.02;;;2.80;99.90;;;;;;5063089;28;20033;-73
2023/02/28 12:27:49;;;;;;;36.78;34.50;;;2.90;99.90;;;;;;5035268;28;20465;-74
2023/02/28 12:30:22;;;;;;;33.45;31.17;;;3.20;99.90;;;;;;5042145;28;20135;-73
2023/02/28 12:32:54;;;;;;;37.30;35.00;;;3.30;99.90;;;;;;5062351;28;20040;-74
2023/02/28 12:35:27;;;;;;;35.17;32.95;;;3.10;99.90;;;;;;5042839;28;20306;-73
2023/02/28 12:38:19;;;;;;;34.78;32.38;;;3.30;99.90;;;;;;5039010;28;20594;-74
2023/02/28 12:41:02;;;;;;;36.15;33.88;;;3.10;99.90;;;;;;5050946;28;20168;-72
2023/02/28 12:43:45;;;;;;;37.47;35.25;;;3.20;99.90;;;;;;5057414;28;20055;-72
2023/02/28 12:46:21;;;;;;;39.17;36.75;;;3.10;99.90;;;;;;4998849;28;20529;-73
2023/02/28 12:48:53;;;;;;;39.47;36.88;;;3.30;99.90;;;;;;5020847;28;20072;-72
2023/02/28 12:51:20;;;;;;;39.75;37.25;;;3.80;99.90;;;;;;5018177;28;20037;-72
2023/02/28 12:53:52;;;;;;;40.58;38.00;;;3.90;99.90;;;;;;5018441;28;20050;-72
2023/02/28 12:56:36;;;;;;;38.00;35.85;;;3.80;99.90;;;;;;5021309;28;20286;-73
2023/02/28 12:59:17;;;;;;;37.30;35.00;;;3.90;99.90;;;;;;5023377;28;20044;-73
2023/02/28 13:02:01;;;;;;;39.50;37.17;;;4.00;99.90;;;;;;5032463;28;20121;-73